KHUL/HUL METAR and TAF weather

Enter ICAO airport designator
Station Type Date Time Source
KHUL METAR 2022/01/19 19:53 UTC NOAA

KHUL 191953Z AUTO 11003KT 1/2SM SN VV015 M15/M18 A2989 RMK AO2 SLP137 P0003 T11501183


Station Type Date Time Source
KHUL Decoded METAR 2022/01/19 19:53 UTC NOAA

HOULTON INT'L AIRPORT, ME, United States (KHUL) 46-07N 067-48W 150M
Jan 19, 2022 - 02:53 PM EST / 2022.01.19 1953 UTC
Wind: from the ESE (110 degrees) at 3 MPH (3 KT):0
Visibility: 1/2 mile(s):0
Sky conditions: obscured
Weather: snow
Precipitation last hour: 0.03 inches
Temperature: 5.0 F (-15.0 C)
Dew Point: -0.9 F (-18.3 C)
Relative Humidity: 75%
Pressure (altimeter): 29.89 in. Hg (1012 hPa)
ob: KHUL 191953Z AUTO 11003KT 1/2SM SN VV015 M15/M18 A2989 RMK AO2 SLP137 P0003 T11501183
cycle: 20

Station Type Date Time Source
KHUL TAF 2022/01/19 18:27 UTC NOAA

TAF KHUL 191724Z 1918/2018 15006KT 3/4SM -SN OVC020
FM192100 16008KT 1SM -SN OVC026
FM192200 16005KT P6SM VCSH OVC013 WS020/21035KT
FM200500 21007KT P6SM OVC045
FM200800 25008KT P6SM BKN045 WS020/27035KT
FM201200 27008KT P6SM BKN070

Example: see airport list